createdAt,value
2019-04-21T00:00:16.724Z,25.2
2019-04-21T00:35:22.929Z,20.6
2019-04-21T09:30:08.820Z,8.2
2019-04-21T09:35:14.387Z,8.0
2019-04-21T09:40:11.696Z,7.6
2019-04-21T09:45:10.065Z,7.3
2019-04-21T09:50:08.487Z,7.1
2019-04-21T09:55:21.485Z,7.4
2019-04-21T10:00:25.165Z,7.6
2019-04-21T10:05:02.257Z,7.4
2019-04-21T10:10:00.714Z,7.4
2019-04-21T10:15:02.342Z,7.3
2019-04-21T10:20:01.140Z,7.2
2019-04-21T10:25:00.932Z,7.0
2019-04-21T10:30:02.116Z,7.5
2019-04-21T10:35:01.658Z,7.6
2019-04-21T10:40:00.739Z,7.4
2019-04-21T10:45:07.579Z,7.4
2019-04-21T10:50:00.873Z,8.1
2019-04-21T11:00:12.593Z,8.0
2019-04-21T11:15:01.489Z,7.1
2019-04-21T11:20:02.584Z,7.2
2019-04-21T11:25:01.071Z,7.1
2019-04-21T11:30:02.460Z,7.0
2019-04-21T11:35:01.607Z,6.7
2019-04-21T11:40:21.354Z,6.9
2019-04-21T11:45:01.124Z,6.6
2019-04-21T11:50:01.503Z,6.8
2019-04-21T11:55:00.926Z,6.9
2019-04-21T12:00:07.157Z,6.9
2019-04-21T12:10:02.131Z,7.0
2019-04-21T12:15:02.354Z,6.8
2019-04-21T12:20:03.163Z,6.8
2019-04-21T12:25:03.022Z,7.3
2019-04-21T12:30:03.798Z,7.4
2019-04-21T12:35:02.164Z,7.6
2019-04-21T12:40:01.197Z,7.8
2019-04-21T12:45:01.802Z,8.2
2019-04-21T12:50:00.782Z,8.3
2019-04-21T12:55:02.098Z,8.4
2019-04-21T13:00:00.974Z,8.8
2019-04-21T13:05:07.344Z,9.3
2019-04-21T13:10:08.499Z,9.1
2019-04-21T13:15:04.432Z,9.0
2019-04-21T13:20:01.743Z,9.3
2019-04-21T13:25:05.900Z,9.2
2019-04-21T13:30:02.388Z,9.2
2019-04-21T13:35:06.675Z,9.5
2019-04-21T13:45:12.131Z,10.0
2019-04-21T13:50:09.052Z,9.7
2019-04-21T13:55:01.682Z,9.5
2019-04-21T14:00:01.795Z,9.5
2019-04-21T14:05:01.576Z,9.2
2019-04-21T14:10:12.393Z,8.4
2019-04-21T14:15:06.638Z,8.4
2019-04-21T14:20:01.925Z,8.0
2019-04-21T14:25:03.668Z,7.6
2019-04-21T14:30:01.057Z,7.8
2019-04-21T14:35:02.925Z,7.9
2019-04-21T14:40:20.431Z,7.5
2019-04-21T14:45:07.234Z,7.9
2019-04-21T14:50:00.804Z,7.9
2019-04-21T14:55:08.906Z,7.7
2019-04-21T15:00:01.129Z,7.6
2019-04-21T15:05:09.456Z,7.6
2019-04-21T15:15:07.720Z,7.5
2019-04-21T15:20:19.354Z,7.6
2019-04-21T15:25:02.982Z,7.9
2019-04-21T15:30:02.807Z,7.8
2019-04-21T15:35:07.105Z,8.0
2019-04-21T15:40:37.355Z,8.0
2019-04-21T15:45:01.294Z,7.7
2019-04-21T15:50:17.665Z,7.6
2019-04-21T15:55:01.233Z,8.2
2019-04-21T16:00:04.496Z,8.5
2019-04-21T16:05:01.431Z,8.7
2019-04-21T16:10:08.446Z,8.9
2019-04-21T16:15:01.108Z,8.9
2019-04-21T16:20:04.202Z,8.8
2019-04-21T16:25:01.241Z,9.1
2019-04-21T16:30:04.006Z,8.9
2019-04-21T16:35:14.417Z,8.9
2019-04-21T16:40:07.428Z,8.7
2019-04-21T16:45:01.319Z,8.6
2019-04-21T16:50:03.404Z,8.3
2019-04-21T16:55:12.872Z,8.9
2019-04-21T17:00:02.685Z,9.1
2019-04-21T17:05:02.491Z,9.6
2019-04-21T17:10:02.671Z,10.1
2019-04-21T17:25:02.510Z,10.8
2019-04-21T17:30:01.665Z,11.0
2019-04-21T17:35:03.843Z,11.0
2019-04-21T17:40:09.128Z,10.8
2019-04-21T17:45:06.662Z,11.0
2019-04-21T17:50:07.643Z,10.9
2019-04-21T17:55:27.665Z,10.7
2019-04-21T18:20:03.716Z,11.9
2019-04-21T18:25:31.630Z,12.6
2019-04-21T18:30:02.757Z,12.9
2019-04-21T18:50:03.959Z,14.3
2019-04-21T19:00:26.098Z,15.4
2019-04-21T19:05:21.490Z,14.9
2019-04-21T19:55:04.384Z,10.3
2019-04-21T20:00:10.024Z,10.5
2019-04-21T20:05:20.591Z,10.4
2019-04-21T20:20:03.686Z,11.1
2019-04-21T20:25:19.133Z,11.2
2019-04-21T20:55:37.751Z,11.4
2019-04-21T21:45:22.143Z,13.7
2019-04-21T21:50:33.219Z,14.4
2019-04-21T21:55:07.659Z,13.8
2019-04-21T22:00:15.278Z,13.8
2019-04-21T22:05:25.751Z,13.3
2019-04-21T22:15:24.670Z,12.6
2019-04-21T22:25:26.574Z,13.2
2019-04-21T22:30:12.758Z,13.6
2019-04-21T22:40:30.950Z,14.1
2019-04-21T22:45:01.168Z,14.4
2019-04-21T22:50:03.212Z,13.7
2019-04-21T23:00:14.575Z,13.2
2019-04-21T23:05:06.372Z,12.8
2019-04-21T23:10:01.559Z,12.2
2019-04-21T23:15:18.501Z,11.8
2019-04-21T23:35:27.686Z,11.3
2019-04-21T23:40:25.231Z,11.7
2019-04-21T23:45:10.656Z,12.0
2019-04-21T23:55:01.384Z,11.6
